createdAt,value
2023-09-15T00:00:03.701Z,208.27
2023-09-15T00:02:42.928Z,210.93
2023-09-15T00:05:19.576Z,212.65
2023-09-15T00:07:55.755Z,212.07
2023-09-15T00:10:31.261Z,208.90
2023-09-15T00:13:07.054Z,208.50
2023-09-15T00:15:43.673Z,220.13
2023-09-15T00:18:23.214Z,212.35
2023-09-15T00:21:02.859Z,209.98
2023-09-15T00:23:38.645Z,211.35
2023-09-15T00:26:16.683Z,206.25
2023-09-15T00:28:52.495Z,209.13
2023-09-15T00:31:28.165Z,208.30
2023-09-15T00:34:07.466Z,208.85
2023-09-15T00:36:44.108Z,209.02
2023-09-15T00:39:19.805Z,204.70
2023-09-15T00:41:56.370Z,201.77
2023-09-15T00:44:32.991Z,215.38
2023-09-15T00:47:08.383Z,210.85
2023-09-15T00:49:46.761Z,208.73
2023-09-15T00:52:22.839Z,200.35
2023-09-15T00:55:00.234Z,212.43
2023-09-15T00:57:36.328Z,206.95
2023-09-15T01:00:16.058Z,211.18
2023-09-15T01:02:51.810Z,203.10
2023-09-15T01:05:32.135Z,213.90
2023-09-15T01:08:08.346Z,204.90
2023-09-15T01:10:45.700Z,205.88
2023-09-15T01:13:21.013Z,210.23
2023-09-15T01:16:03.915Z,210.70
2023-09-15T01:18:49.643Z,217.95
2023-09-15T01:21:49.329Z,221.95
2023-09-15T01:25:04.654Z,210.23
2023-09-15T01:28:07.164Z,210.68
2023-09-15T01:30:49.124Z,212.65
2023-09-15T01:33:30.798Z,208.45
2023-09-15T01:36:06.731Z,211.40
2023-09-15T01:38:49.990Z,212.05
2023-09-15T01:41:39.121Z,215.40
2023-09-15T01:44:15.202Z,217.20
2023-09-15T01:46:53.418Z,220.45
2023-09-15T01:49:31.261Z,215.02
2023-09-15T01:52:07.443Z,223.68
2023-09-15T01:54:47.151Z,223.65
2023-09-15T01:57:22.902Z,220.75
2023-09-15T01:59:58.556Z,222.15
2023-09-15T02:02:37.629Z,226.80
2023-09-15T02:05:14.167Z,219.02
2023-09-15T02:07:50.088Z,223.40
2023-09-15T02:10:29.791Z,229.40
2023-09-15T02:13:14.179Z,225.68
2023-09-15T02:18:29.794Z,220.73
2023-09-15T02:21:06.906Z,233.68
2023-09-15T02:23:44.087Z,226.80
2023-09-15T02:26:20.411Z,226.45
2023-09-15T02:28:56.453Z,233.40
2023-09-15T02:31:33.828Z,240.35
2023-09-15T02:34:16.119Z,235.98
2023-09-15T02:36:52.226Z,238.65
2023-09-15T02:39:30.360Z,238.93
2023-09-15T02:42:11.860Z,242.40
2023-09-15T02:44:50.959Z,245.68
2023-09-15T02:47:26.487Z,242.25
2023-09-15T02:50:06.018Z,244.32
2023-09-15T02:52:42.093Z,249.38
2023-09-15T02:55:17.668Z,246.50
2023-09-15T02:57:54.803Z,250.05
2023-09-15T03:00:29.903Z,253.85
2023-09-15T03:03:06.990Z,256.23
2023-09-15T03:05:45.524Z,252.45
2023-09-15T03:08:21.198Z,256.88
2023-09-15T03:11:04.980Z,260.88
2023-09-15T03:13:41.640Z,266.23
2023-09-15T03:16:18.304Z,259.85
2023-09-15T03:18:57.658Z,264.88
2023-09-15T03:21:36.757Z,262.05
2023-09-15T03:24:13.226Z,264.88
2023-09-15T03:26:49.987Z,264.15
2023-09-15T03:29:24.976Z,272.52
2023-09-15T03:32:01.821Z,263.48
2023-09-15T03:34:37.666Z,271.88
2023-09-15T03:37:18.882Z,266.15
2023-09-15T03:40:05.978Z,283.77
2023-09-15T03:42:41.393Z,273.70
2023-09-15T03:45:21.114Z,285.88
2023-09-15T03:47:57.195Z,287.95
2023-09-15T03:50:36.469Z,298.58
2023-09-15T03:53:18.579Z,287.48
2023-09-15T03:55:56.099Z,294.35
2023-09-15T03:58:37.961Z,296.85
2023-09-15T04:01:16.295Z,285.60
2023-09-15T04:03:52.378Z,291.00
2023-09-15T04:06:31.489Z,279.48
2023-09-15T04:09:21.771Z,286.83
2023-09-15T04:11:57.348Z,284.77
2023-09-15T04:14:48.427Z,293.63
2023-09-15T04:17:25.741Z,301.92
2023-09-15T04:20:02.015Z,299.60
2023-09-15T04:22:44.316Z,292.38
2023-09-15T04:25:24.190Z,299.52
2023-09-15T04:28:14.346Z,292.85
2023-09-15T04:30:51.747Z,303.40
2023-09-15T04:33:27.406Z,299.20
2023-09-15T04:36:10.399Z,308.77
2023-09-15T04:38:49.161Z,309.42
2023-09-15T04:41:28.477Z,312.20
2023-09-15T04:44:04.243Z,313.77
2023-09-15T04:46:40.128Z,323.92
2023-09-15T04:49:15.477Z,316.90
2023-09-15T04:51:54.580Z,322.08
2023-09-15T04:54:32.612Z,317.02
2023-09-15T04:57:12.244Z,325.25
2023-09-15T04:59:53.066Z,329.90
2023-09-15T05:02:37.030Z,337.17
2023-09-15T05:05:13.484Z,315.60
2023-09-15T05:07:50.631Z,322.27
2023-09-15T05:10:25.969Z,319.20
2023-09-15T05:13:59.719Z,308.38
2023-09-15T05:16:45.342Z,299.00
2023-09-15T05:19:22.255Z,302.90
2023-09-15T05:21:59.632Z,313.17
2023-09-15T05:24:38.188Z,334.02
2023-09-15T05:27:13.804Z,335.40
2023-09-15T05:29:53.366Z,333.08
2023-09-15T05:32:32.831Z,325.25
2023-09-15T05:35:09.544Z,321.42
2023-09-15T05:37:45.710Z,328.10
2023-09-15T05:40:23.960Z,333.52
2023-09-15T05:43:01.964Z,328.98
2023-09-15T05:45:40.026Z,334.83
2023-09-15T05:48:16.635Z,318.48
2023-09-15T05:50:52.321Z,324.13
2023-09-15T05:53:27.958Z,321.08
2023-09-15T05:56:03.634Z,318.23
2023-09-15T05:58:39.348Z,327.08
2023-09-15T06:04:13.726Z,325.52
2023-09-15T06:06:52.149Z,324.58
2023-09-15T06:12:15.908Z,317.58
2023-09-15T06:14:53.236Z,323.73
2023-09-15T06:17:32.209Z,325.05
2023-09-15T06:20:07.714Z,321.95
2023-09-15T06:22:48.675Z,329.58
2023-09-15T06:25:33.418Z,318.13
2023-09-15T06:28:20.704Z,318.33
2023-09-15T06:31:02.946Z,320.13
2023-09-15T06:33:43.621Z,321.05
2023-09-15T06:36:20.364Z,319.42
2023-09-15T06:38:58.829Z,321.60
2023-09-15T06:41:46.162Z,318.25
2023-09-15T06:44:23.451Z,319.50
2023-09-15T06:47:04.324Z,322.05
2023-09-15T06:49:45.082Z,325.95
2023-09-15T06:52:42.364Z,323.75
2023-09-15T06:55:17.920Z,314.88
2023-09-15T06:57:57.077Z,339.30
2023-09-15T07:00:32.818Z,339.20
2023-09-15T07:03:17.055Z,339.95
2023-09-15T07:05:57.000Z,336.88
2023-09-15T07:08:36.157Z,332.40
2023-09-15T07:11:11.945Z,335.95
2023-09-15T07:14:19.490Z,335.58
2023-09-15T07:17:02.171Z,339.95
2023-09-15T07:19:55.898Z,349.85
2023-09-15T07:22:34.910Z,364.50
2023-09-15T07:25:13.930Z,334.88
2023-09-15T07:27:55.429Z,339.13
2023-09-15T07:30:32.049Z,336.17
2023-09-15T07:33:09.762Z,343.65
2023-09-15T07:35:54.684Z,335.58
2023-09-15T07:38:34.575Z,349.08
2023-09-15T07:41:24.183Z,355.38
2023-09-15T07:44:04.264Z,352.92
2023-09-15T07:46:40.400Z,335.80
2023-09-15T07:49:16.979Z,342.52
2023-09-15T07:51:53.345Z,332.67
2023-09-15T07:54:32.332Z,336.70
2023-09-15T07:57:11.072Z,337.13
2023-09-15T07:59:49.467Z,337.73
2023-09-15T08:02:29.611Z,349.27
2023-09-15T08:05:07.798Z,342.17
2023-09-15T08:07:47.766Z,348.50
2023-09-15T08:10:26.659Z,346.00
2023-09-15T08:13:03.063Z,345.42
2023-09-15T08:15:40.276Z,348.65
2023-09-15T08:18:28.005Z,353.08
2023-09-15T08:21:05.641Z,352.48
2023-09-15T08:23:52.152Z,359.40
2023-09-15T08:26:44.158Z,355.55
2023-09-15T08:29:20.199Z,347.48
2023-09-15T08:31:56.642Z,350.77
2023-09-15T08:34:32.956Z,365.52
2023-09-15T08:37:08.656Z,366.58
2023-09-15T08:39:46.472Z,360.23
2023-09-15T08:42:31.080Z,355.70
2023-09-15T08:45:12.914Z,346.98
2023-09-15T08:47:54.168Z,328.92
2023-09-15T08:50:31.435Z,344.50
2023-09-15T08:53:11.451Z,338.70
2023-09-15T08:55:47.227Z,342.70
2023-09-15T08:58:27.346Z,331.85
2023-09-15T09:01:03.843Z,338.75
2023-09-15T09:03:41.918Z,340.30
2023-09-15T09:06:21.690Z,336.17
2023-09-15T09:09:02.610Z,336.58
2023-09-15T09:11:41.087Z,336.13
2023-09-15T09:17:15.255Z,330.10
2023-09-15T09:19:50.798Z,328.90
2023-09-15T09:22:27.501Z,329.20
2023-09-15T09:25:06.243Z,336.33
2023-09-15T09:27:45.383Z,342.00
2023-09-15T09:33:14.779Z,337.73
2023-09-15T09:36:01.113Z,329.42
2023-09-15T09:38:36.708Z,333.80
2023-09-15T09:41:24.617Z,331.23
2023-09-15T09:44:16.316Z,334.95
2023-09-15T09:47:00.869Z,330.42
2023-09-15T09:49:37.670Z,337.05
2023-09-15T09:52:18.969Z,337.23
2023-09-15T09:54:58.996Z,336.55
2023-09-15T09:57:35.924Z,333.45
2023-09-15T10:00:13.102Z,333.80
2023-09-15T10:02:52.260Z,331.33
2023-09-15T10:05:28.291Z,331.77
2023-09-15T10:08:03.768Z,330.40
2023-09-15T10:10:46.700Z,331.80
2023-09-15T10:13:23.247Z,329.58
2023-09-15T10:16:00.574Z,342.23
2023-09-15T10:21:28.315Z,325.17
2023-09-15T10:27:02.968Z,326.27
2023-09-15T10:29:39.835Z,325.55
2023-09-15T10:32:16.082Z,325.52
2023-09-15T10:34:57.426Z,311.88
2023-09-15T10:37:33.006Z,314.52
2023-09-15T10:40:08.218Z,317.48
2023-09-15T10:42:57.557Z,318.45
2023-09-15T10:45:41.560Z,320.45
2023-09-15T10:48:17.714Z,308.02
2023-09-15T10:51:02.840Z,319.35
2023-09-15T10:53:50.226Z,319.92
2023-09-15T10:56:30.205Z,317.65
2023-09-15T10:59:07.026Z,313.42
2023-09-15T11:01:46.230Z,313.23
2023-09-15T11:04:24.111Z,313.15
2023-09-15T11:07:07.374Z,317.02
2023-09-15T11:09:43.728Z,305.55
2023-09-15T11:12:21.038Z,319.85
2023-09-15T11:14:56.962Z,313.35
2023-09-15T11:17:37.259Z,309.98
2023-09-15T11:20:19.425Z,318.42
2023-09-15T11:23:04.877Z,322.27
2023-09-15T11:28:50.512Z,316.45
2023-09-15T11:31:26.609Z,307.73
2023-09-15T11:34:21.608Z,303.90
2023-09-15T11:37:02.913Z,307.35
2023-09-15T11:39:42.868Z,312.08
2023-09-15T11:42:19.966Z,299.55
2023-09-15T11:44:58.117Z,300.00
2023-09-15T11:47:40.988Z,293.05
2023-09-15T11:50:36.978Z,298.85
2023-09-15T11:53:42.229Z,302.42
2023-09-15T11:56:23.958Z,300.15
2023-09-15T11:59:06.315Z,302.70
2023-09-15T12:01:42.616Z,296.20
2023-09-15T12:04:20.906Z,298.10
2023-09-15T12:07:14.728Z,298.20
2023-09-15T12:09:51.588Z,289.73
2023-09-15T12:12:50.381Z,291.80
2023-09-15T12:15:32.749Z,271.85
2023-09-15T12:18:14.287Z,271.45
2023-09-15T12:21:19.775Z,300.08
2023-09-15T12:23:57.238Z,285.50
2023-09-15T12:26:57.390Z,279.52
2023-09-15T12:30:29.878Z,286.40
2023-09-15T12:33:27.612Z,278.63
2023-09-15T12:36:07.951Z,283.63
2023-09-15T12:38:43.447Z,285.50
2023-09-15T12:41:20.459Z,281.35
2023-09-15T12:43:56.486Z,280.27
2023-09-15T12:46:36.094Z,277.48
2023-09-15T12:49:25.893Z,284.42
2023-09-15T12:52:02.009Z,275.05
2023-09-15T12:54:43.954Z,276.80
2023-09-15T12:57:19.392Z,277.95
2023-09-15T12:59:58.278Z,277.17
2023-09-15T13:02:54.091Z,299.25
2023-09-15T13:05:31.896Z,286.65
2023-09-15T13:08:07.691Z,299.27
2023-09-15T13:10:43.651Z,296.17
2023-09-15T13:16:08.445Z,286.13
2023-09-15T13:19:02.221Z,291.20
2023-09-15T13:22:11.436Z,280.25
2023-09-15T13:24:46.831Z,293.88
2023-09-15T13:27:25.957Z,272.35
2023-09-15T13:30:09.932Z,275.52
2023-09-15T13:32:46.601Z,279.27
2023-09-15T13:35:26.426Z,270.50
2023-09-15T13:38:03.128Z,273.58
2023-09-15T13:41:27.514Z,273.48
2023-09-15T13:44:09.471Z,264.63
2023-09-15T13:46:45.137Z,273.65
2023-09-15T13:49:20.956Z,265.50
2023-09-15T13:52:14.805Z,269.95
2023-09-15T13:55:07.388Z,263.53
2023-09-15T13:57:45.053Z,252.38
2023-09-15T14:00:21.570Z,257.60
2023-09-15T14:03:12.252Z,261.88
2023-09-15T14:06:11.778Z,260.95
2023-09-15T14:09:02.428Z,257.15
2023-09-15T14:11:40.781Z,262.73
2023-09-15T14:14:16.436Z,251.23
2023-09-15T14:17:12.567Z,258.42
2023-09-15T14:19:48.325Z,248.45
2023-09-15T14:22:23.860Z,242.10
2023-09-15T14:25:02.240Z,231.88
2023-09-15T14:27:42.562Z,237.32
2023-09-15T14:30:43.873Z,248.98
2023-09-15T14:33:27.388Z,239.38
2023-09-15T14:36:04.854Z,249.47
2023-09-15T14:38:40.489Z,249.38
2023-09-15T14:41:43.128Z,250.27
2023-09-15T14:44:28.544Z,236.60
2023-09-15T14:47:25.619Z,252.48
2023-09-15T14:50:15.417Z,242.93
2023-09-15T14:52:55.846Z,239.23
2023-09-15T14:55:40.902Z,242.57
2023-09-15T14:58:25.897Z,247.18
2023-09-15T15:01:02.453Z,244.48
2023-09-15T15:03:39.068Z,243.43
2023-09-15T15:09:30.165Z,238.80
2023-09-15T15:12:05.418Z,233.50
2023-09-15T15:14:49.925Z,235.93
2023-09-15T15:17:30.291Z,236.40
2023-09-15T15:20:29.359Z,234.55
2023-09-15T15:25:53.978Z,236.00
2023-09-15T15:28:32.181Z,231.23
2023-09-15T15:31:17.923Z,234.02
2023-09-15T15:34:00.205Z,232.38
2023-09-15T15:36:37.867Z,229.70
2023-09-15T15:39:21.510Z,234.52
2023-09-15T15:41:57.852Z,236.35
2023-09-15T15:44:36.169Z,237.00
2023-09-15T15:47:47.457Z,234.90
2023-09-15T15:50:40.293Z,224.73
2023-09-15T15:53:24.668Z,226.52
2023-09-15T15:55:59.533Z,229.63
2023-09-15T15:58:35.173Z,236.20
2023-09-15T16:01:11.773Z,241.82
2023-09-15T16:03:50.607Z,233.25
2023-09-15T16:06:28.824Z,223.32
2023-09-15T16:09:05.306Z,218.35
2023-09-15T16:11:44.063Z,225.93
2023-09-15T16:14:26.990Z,220.02
2023-09-15T16:17:02.539Z,220.95
2023-09-15T16:19:43.034Z,220.18
2023-09-15T16:22:30.237Z,211.85
2023-09-15T16:25:05.930Z,222.13
2023-09-15T16:27:44.738Z,225.57
2023-09-15T16:30:22.032Z,217.13
2023-09-15T16:32:59.221Z,215.43
2023-09-15T16:35:39.532Z,216.15
2023-09-15T16:38:17.774Z,206.82
2023-09-15T16:40:56.531Z,215.50
2023-09-15T16:43:34.630Z,205.02
2023-09-15T16:46:10.209Z,201.60
2023-09-15T16:48:45.689Z,207.43
2023-09-15T16:51:29.583Z,200.02
2023-09-15T16:54:07.711Z,209.15
2023-09-15T16:56:44.867Z,207.90
2023-09-15T17:02:15.068Z,205.70
2023-09-15T17:07:42.869Z,209.20
2023-09-15T17:10:42.656Z,211.75
2023-09-15T17:13:36.861Z,211.30
2023-09-15T17:16:42.129Z,218.05
2023-09-15T17:19:25.024Z,213.80
2023-09-15T17:21:59.782Z,210.85
2023-09-15T17:27:30.999Z,203.95
2023-09-15T17:30:26.273Z,205.18
2023-09-15T17:33:01.604Z,202.65
2023-09-15T17:35:44.160Z,202.50
2023-09-15T17:41:12.534Z,216.60
2023-09-15T17:43:50.829Z,204.32
2023-09-15T17:46:26.423Z,194.55
2023-09-15T17:49:03.758Z,200.25
2023-09-15T17:51:45.028Z,201.48
2023-09-15T17:54:22.765Z,209.25
2023-09-15T17:57:03.468Z,210.90
2023-09-15T17:59:38.802Z,199.65
2023-09-15T18:02:13.626Z,205.23
2023-09-15T18:04:50.201Z,200.07
2023-09-15T18:07:25.560Z,203.63
2023-09-15T18:10:05.827Z,206.45
2023-09-15T18:12:56.085Z,202.68
2023-09-15T18:15:31.689Z,195.27
2023-09-15T18:18:09.463Z,204.85
2023-09-15T18:20:45.744Z,212.85
2023-09-15T18:23:22.700Z,214.10
2023-09-15T18:25:58.907Z,202.95
2023-09-15T18:28:36.489Z,202.18
2023-09-15T18:31:11.952Z,206.90
2023-09-15T18:33:47.381Z,201.15
2023-09-15T18:36:26.584Z,199.32
2023-09-15T18:39:01.506Z,201.50
2023-09-15T18:41:38.257Z,201.52
2023-09-15T18:44:16.472Z,204.85
2023-09-15T18:46:51.538Z,191.93
2023-09-15T18:49:29.080Z,202.10
2023-09-15T18:52:04.180Z,200.07
2023-09-15T18:54:39.610Z,196.20
2023-09-15T18:57:17.404Z,201.70
2023-09-15T18:59:57.133Z,205.00
2023-09-15T19:02:32.911Z,204.13
2023-09-15T19:05:10.645Z,188.85
2023-09-15T19:07:46.126Z,195.80
2023-09-15T19:10:22.418Z,191.27
2023-09-15T19:13:03.640Z,193.80
2023-09-15T19:15:44.128Z,199.05
2023-09-15T19:18:19.271Z,194.00
2023-09-15T19:20:54.636Z,192.73
2023-09-15T19:23:30.349Z,183.60
2023-09-15T19:26:06.249Z,203.77
2023-09-15T19:28:41.025Z,197.43
2023-09-15T19:31:19.012Z,192.27
2023-09-15T19:33:55.953Z,202.80
2023-09-15T19:36:35.117Z,201.55
2023-09-15T19:39:11.444Z,196.40
2023-09-15T19:41:46.235Z,202.90
2023-09-15T19:44:25.462Z,196.90
2023-09-15T19:47:03.156Z,197.98
2023-09-15T19:49:38.402Z,187.75
2023-09-15T19:52:13.580Z,197.05
2023-09-15T19:54:54.264Z,196.80
2023-09-15T19:57:31.436Z,193.85
2023-09-15T20:00:07.582Z,197.98
2023-09-15T20:02:45.695Z,189.70
2023-09-15T20:05:21.412Z,188.95
2023-09-15T20:07:59.155Z,195.15
2023-09-15T20:10:34.400Z,185.40
2023-09-15T20:13:09.737Z,197.73
2023-09-15T20:15:46.444Z,198.52
2023-09-15T20:18:30.167Z,195.60
2023-09-15T20:21:05.543Z,206.82
2023-09-15T20:23:40.892Z,199.45
2023-09-15T20:26:15.986Z,199.60
2023-09-15T20:28:51.372Z,193.50
2023-09-15T20:31:26.681Z,198.48
2023-09-15T20:34:11.126Z,192.27
2023-09-15T20:39:23.453Z,198.43
2023-09-15T20:41:58.685Z,202.20
2023-09-15T20:44:34.070Z,191.07
2023-09-15T20:47:09.437Z,200.90
2023-09-15T20:49:47.956Z,196.63
2023-09-15T20:52:24.612Z,192.60
2023-09-15T20:55:03.444Z,201.13
2023-09-15T20:57:39.087Z,191.93
2023-09-15T21:00:17.901Z,192.30
2023-09-15T21:02:53.011Z,195.80
2023-09-15T21:05:34.171Z,196.02
2023-09-15T21:08:09.639Z,179.82
2023-09-15T21:10:44.909Z,196.82
2023-09-15T21:13:20.474Z,189.88
2023-09-15T21:15:56.478Z,194.43
2023-09-15T21:18:31.985Z,191.40
2023-09-15T21:21:11.087Z,196.52
2023-09-15T21:23:46.769Z,196.20
2023-09-15T21:26:24.392Z,190.90
2023-09-15T21:29:01.547Z,188.88
2023-09-15T21:31:37.622Z,193.27
2023-09-15T21:34:12.620Z,201.40
2023-09-15T21:36:50.516Z,196.77
2023-09-15T21:39:26.270Z,193.18
2023-09-15T21:42:01.376Z,192.27
2023-09-15T21:44:36.680Z,193.43
2023-09-15T21:47:11.918Z,199.32
2023-09-15T21:49:47.252Z,189.68
2023-09-15T21:52:26.272Z,187.00
2023-09-15T21:55:01.341Z,193.25
2023-09-15T21:57:36.587Z,202.27
2023-09-15T22:00:22.955Z,197.15
2023-09-15T22:03:06.908Z,194.32
2023-09-15T22:05:42.548Z,202.65
2023-09-15T22:08:20.458Z,202.50
2023-09-15T22:10:56.400Z,192.00
2023-09-15T22:13:33.645Z,195.13
2023-09-15T22:16:08.467Z,192.35
2023-09-15T22:18:44.245Z,198.85
2023-09-15T22:21:19.196Z,176.10
2023-09-15T22:24:02.450Z,194.77
2023-09-15T22:26:37.440Z,194.35
2023-09-15T22:29:12.053Z,195.63
2023-09-15T22:31:47.079Z,195.05
2023-09-15T22:34:22.021Z,190.60
2023-09-15T22:36:56.914Z,204.98
2023-09-15T22:39:35.829Z,206.88
2023-09-15T22:42:11.271Z,224.55
2023-09-15T22:44:46.155Z,232.43
2023-09-15T22:47:23.530Z,228.90
2023-09-15T22:49:59.068Z,228.98
2023-09-15T22:52:34.451Z,219.88
2023-09-15T22:55:15.074Z,226.48
2023-09-15T22:57:53.036Z,223.15
2023-09-15T23:00:28.894Z,224.75
2023-09-15T23:03:04.456Z,223.43
2023-09-15T23:05:39.917Z,221.60
2023-09-15T23:08:16.025Z,224.52
2023-09-15T23:10:57.811Z,225.68
2023-09-15T23:13:38.606Z,216.45
2023-09-15T23:16:15.047Z,222.18
2023-09-15T23:18:51.267Z,222.70
2023-09-15T23:21:27.457Z,216.45
2023-09-15T23:24:02.766Z,222.50
2023-09-15T23:26:42.641Z,227.35
2023-09-15T23:29:20.656Z,233.13
2023-09-15T23:31:59.175Z,227.10
2023-09-15T23:34:36.675Z,224.48
2023-09-15T23:37:12.820Z,227.80
2023-09-15T23:39:48.968Z,223.30
2023-09-15T23:42:28.077Z,216.20
2023-09-15T23:45:04.434Z,224.60
2023-09-15T23:47:39.753Z,234.48
2023-09-15T23:50:16.016Z,218.52
2023-09-15T23:52:51.735Z,224.70
2023-09-15T23:55:27.546Z,229.07
2023-09-15T23:58:07.384Z,219.48
